AGROMETEOROLOŠKI PORTAL

vinorodna pokrajina

Temelj dobrega kmetovanja

Pregled podatkov za lokacijo Znojile pri Krki, meteorološka postaja 37827

Pregled senzorjev na lokaciji

ID Ime Zadnja
vrednost
Datum in čas
meritve
(lokalni čas)
Tip
senzorja
2023 Omočenost lista (1,5 m) (U) 10 U 6.10.2022 05:00 A730WET
5069 Padavine (mm) 0 mm 6.10.2022 05:00 Generic 0.2 mm
2025 Relativna zračna vlaga (2 m) (%RH) 100 %RH 6.10.2022 05:00 50YA
2024 Temperatura (2 m) (°C) 8,7 °C 6.10.2022 05:00 50YA

Pregled podatkov zadnjih 24 ur

Zap.
št.
Datum in čas
(lokalni čas)
Znojile pri Krki
Omočenost
lista
(1,5
m)
Padavine Relativna
zračna
vlaga
(2
m)
Temperatura
(2
m)
1 6.10.2022 05:00 10 0 99,9 8,7
2 6.10.2022 04:30 10 0 99,9 8,9
3 6.10.2022 04:00 10 0 99,9 9,3
4 6.10.2022 03:30 10 0 99,9 9,7
5 6.10.2022 03:00 10 0 99,9 10,1
6 6.10.2022 02:30 10 0 99,8 10,3
7 6.10.2022 02:00 10 0 99,3 10,7
8 6.10.2022 01:30 10 0 98,7 10,9
9 6.10.2022 01:00 10 0 97,5 11,4
10 6.10.2022 00:30 9 0 96,9 11,8
11 6.10.2022 00:00 5 0 94,2 12,4
12 5.10.2022 23:30 3 0 89,3 13,5
13 5.10.2022 23:00 2 0 82,2 15,1
14 5.10.2022 22:30 2 0 84,2 14,8
15 5.10.2022 22:00 2 0 82,9 14,9
16 5.10.2022 21:30 1 0 82,5 14,9
17 5.10.2022 21:00 1 0 81,2 15,3
18 5.10.2022 20:30 1 0 80,7 15,4
19 5.10.2022 20:00 0 0 78,8 15,8
20 5.10.2022 19:30 0 0 75,6 16,4
21 5.10.2022 19:00 0 0 70,5 17,5
22 5.10.2022 18:30 0 0 63,8 18,9
23 5.10.2022 18:00 0 0 60,6 19,9
24 5.10.2022 17:30 0 0 58,4 20,8
25 5.10.2022 17:00 0 0 56,3 21,7
26 5.10.2022 16:30 0 0 55,2 22
27 5.10.2022 16:00 0 0 57,1 22,2
28 5.10.2022 15:30 0 0 57,3 22,3
29 5.10.2022 15:00 0 0 58,4 22
30 5.10.2022 14:30 0 0 60,5 21,7
31 5.10.2022 14:00 0 0 63,8 21
32 5.10.2022 13:30 0 0 63,6 20,7
33 5.10.2022 13:00 0 0 65,9 19,7
34 5.10.2022 12:30 0 0 66,4 19,1
35 5.10.2022 12:00 0 0 68,5 18,2
36 5.10.2022 11:30 0 0 73,5 17,2
37 5.10.2022 11:00 0 0 78 15,6
38 5.10.2022 10:30 1 0 85,2 13,6
39 5.10.2022 10:00 2 0 90,7 11,8
40 5.10.2022 09:30 2 0 96 10
41 5.10.2022 09:00 6 0 99,9 8,4
42 5.10.2022 08:30 10 0 99,9 6,8
43 5.10.2022 08:00 10 0 99,9 6,1
44 5.10.2022 07:30 10 0 99,9 5,9
45 5.10.2022 07:00 10 0 99,9 6,2
46 5.10.2022 06:30 10 0 99,9 6,4